sensor_id;sensor_type;location;lat;lon;timestamp;P1;durP1;ratioP1;P2;durP2;ratioP2
3767;SDS011;1899;49.966;7.106;2022-09-12T04:00:11;13.03;;;11.63;;
3767;SDS011;1899;49.966;7.106;2022-09-12T04:02:37;14.70;;;11.18;;
3767;SDS011;1899;49.966;7.106;2022-09-12T04:05:02;12.13;;;10.87;;
3767;SDS011;1899;49.966;7.106;2022-09-12T04:07:28;13.50;;;12.20;;
3767;SDS011;1899;49.966;7.106;2022-09-12T04:09:53;14.97;;;11.40;;
3767;SDS011;1899;49.966;7.106;2022-09-12T04:12:19;15.93;;;13.35;;
3767;SDS011;1899;49.966;7.106;2022-09-12T04:14:44;13.43;;;11.80;;
3767;SDS011;1899;49.966;7.106;2022-09-12T04:17:09;14.73;;;13.20;;
3767;SDS011;1899;49.966;7.106;2022-09-12T04:19:34;14.00;;;11.57;;
3767;SDS011;1899;49.966;7.106;2022-09-12T04:22:00;13.83;;;12.00;;
3767;SDS011;1899;49.966;7.106;2022-09-12T04:24:25;12.47;;;10.13;;
3767;SDS011;1899;49.966;7.106;2022-09-12T04:26:50;11.82;;;10.60;;
3767;SDS011;1899;49.966;7.106;2022-09-12T04:29:15;11.50;;;9.93;;
3767;SDS011;1899;49.966;7.106;2022-09-12T04:31:41;12.40;;;11.20;;
3767;SDS011;1899;49.966;7.106;2022-09-12T04:34:07;14.25;;;11.60;;
3767;SDS011;1899;49.966;7.106;2022-09-12T04:36:32;17.53;;;12.07;;
3767;SDS011;1899;49.966;7.106;2022-09-12T04:38:58;16.52;;;12.93;;
3767;SDS011;1899;49.966;7.106;2022-09-12T04:41:26;16.50;;;12.63;;
3767;SDS011;1899;49.966;7.106;2022-09-12T04:43:53;17.38;;;12.60;;
3767;SDS011;1899;49.966;7.106;2022-09-12T04:46:18;14.90;;;13.30;;
3767;SDS011;1899;49.966;7.106;2022-09-12T04:48:44;16.30;;;14.20;;
3767;SDS011;1899;49.966;7.106;2022-09-12T04:51:20;15.80;;;12.30;;
3767;SDS011;1899;49.966;7.106;2022-09-12T04:53:49;16.38;;;13.95;;
3767;SDS011;1899;49.966;7.106;2022-09-12T04:56:15;14.90;;;13.10;;
3767;SDS011;1899;49.966;7.106;2022-09-12T04:58:40;10.80;;;9.70;;
3767;SDS011;1899;49.966;7.106;2022-09-12T05:01:10;9.98;;;8.25;;
3767;SDS011;1899;49.966;7.106;2022-09-12T05:03:35;12.23;;;10.60;;
3767;SDS011;1899;49.966;7.106;2022-09-12T05:06:03;11.82;;;10.63;;
3767;SDS011;1899;49.966;7.106;2022-09-12T05:08:29;14.45;;;11.98;;
3767;SDS011;1899;49.966;7.106;2022-09-12T05:10:54;16.60;;;12.30;;
3767;SDS011;1899;49.966;7.106;2022-09-12T05:13:19;14.80;;;12.50;;
3767;SDS011;1899;49.966;7.106;2022-09-12T05:15:55;14.05;;;11.38;;
3767;SDS011;1899;49.966;7.106;2022-09-12T05:18:20;14.52;;;12.15;;
3767;SDS011;1899;49.966;7.106;2022-09-12T05:20:46;13.57;;;11.83;;
3767;SDS011;1899;49.966;7.106;2022-09-12T05:23:11;12.93;;;11.63;;
3767;SDS011;1899;49.966;7.106;2022-09-12T05:25:36;13.50;;;11.63;;
3767;SDS011;1899;49.966;7.106;2022-09-12T05:28:01;13.17;;;10.70;;
3767;SDS011;1899;49.966;7.106;2022-09-12T05:30:26;13.10;;;11.70;;
3767;SDS011;1899;49.966;7.106;2022-09-12T05:32:52;13.47;;;12.03;;
3767;SDS011;1899;49.966;7.106;2022-09-12T05:35:17;15.63;;;12.63;;
3767;SDS011;1899;49.966;7.106;2022-09-12T05:37:42;15.73;;;12.27;;
3767;SDS011;1899;49.966;7.106;2022-09-12T05:40:08;13.98;;;11.85;;
3767;SDS011;1899;49.966;7.106;2022-09-12T05:42:33;13.60;;;11.53;;
3767;SDS011;1899;49.966;7.106;2022-09-12T05:44:58;13.00;;;11.17;;
3767;SDS011;1899;49.966;7.106;2022-09-12T05:47:23;11.60;;;10.13;;
3767;SDS011;1899;49.966;7.106;2022-09-12T05:49:49;13.93;;;12.00;;
3767;SDS011;1899;49.966;7.106;2022-09-12T05:52:15;14.35;;;11.35;;
3767;SDS011;1899;49.966;7.106;2022-09-12T05:54:41;13.23;;;10.85;;
3767;SDS011;1899;49.966;7.106;2022-09-12T05:57:06;13.80;;;11.68;;
3767;SDS011;1899;49.966;7.106;2022-09-12T05:59:32;12.63;;;10.70;;
3767;SDS011;1899;49.966;7.106;2022-09-12T06:01:57;12.20;;;10.90;;
3767;SDS011;1899;49.966;7.106;2022-09-12T06:04:22;14.17;;;11.40;;
3767;SDS011;1899;49.966;7.106;2022-09-12T06:06:47;14.82;;;12.20;;
3767;SDS011;1899;49.966;7.106;2022-09-12T06:09:14;13.73;;;11.27;;
3767;SDS011;1899;49.966;7.106;2022-09-12T06:11:39;15.68;;;11.48;;
3767;SDS011;1899;49.966;7.106;2022-09-12T06:14:05;16.90;;;12.20;;
3767;SDS011;1899;49.966;7.106;2022-09-12T06:16:32;13.95;;;10.90;;
3767;SDS011;1899;49.966;7.106;2022-09-12T06:18:58;13.10;;;11.70;;
3767;SDS011;1899;49.966;7.106;2022-09-12T06:21:24;11.93;;;9.73;;
3767;SDS011;1899;49.966;7.106;2022-09-12T06:23:51;13.10;;;11.25;;
3767;SDS011;1899;49.966;7.106;2022-09-12T06:26:17;12.80;;;10.83;;
3767;SDS011;1899;49.966;7.106;2022-09-12T06:28:45;14.98;;;11.82;;
3767;SDS011;1899;49.966;7.106;2022-09-12T06:31:12;12.55;;;10.68;;
3767;SDS011;1899;49.966;7.106;2022-09-12T06:33:39;13.50;;;11.52;;
3767;SDS011;1899;49.966;7.106;2022-09-12T06:36:06;14.52;;;11.77;;
3767;SDS011;1899;49.966;7.106;2022-09-12T06:38:31;12.68;;;11.15;;
3767;SDS011;1899;49.966;7.106;2022-09-12T06:40:57;12.00;;;10.50;;
3767;SDS011;1899;49.966;7.106;2022-09-12T06:43:22;12.30;;;10.40;;
3767;SDS011;1899;49.966;7.106;2022-09-12T06:45:48;12.30;;;10.63;;
3767;SDS011;1899;49.966;7.106;2022-09-12T06:48:13;12.40;;;10.80;;
3767;SDS011;1899;49.966;7.106;2022-09-12T06:50:38;12.10;;;10.30;;
3767;SDS011;1899;49.966;7.106;2022-09-12T06:53:04;12.97;;;11.27;;
3767;SDS011;1899;49.966;7.106;2022-09-12T06:55:29;17.42;;;11.95;;
3767;SDS011;1899;49.966;7.106;2022-09-12T06:57:54;13.17;;;11.10;;
3767;SDS011;1899;49.966;7.106;2022-09-12T07:00:19;13.30;;;11.60;;
3767;SDS011;1899;49.966;7.106;2022-09-12T07:02:45;12.73;;;11.43;;
3767;SDS011;1899;49.966;7.106;2022-09-12T07:05:10;11.67;;;10.47;;
3767;SDS011;1899;49.966;7.106;2022-09-12T07:07:35;11.67;;;10.47;;
3767;SDS011;1899;49.966;7.106;2022-09-12T07:10:00;12.87;;;11.27;;
3767;SDS011;1899;49.966;7.106;2022-09-12T07:12:26;14.43;;;12.17;;
3767;SDS011;1899;49.966;7.106;2022-09-12T07:14:52;13.10;;;11.70;;
3767;SDS011;1899;49.966;7.106;2022-09-12T07:17:17;12.47;;;11.13;;
3767;SDS011;1899;49.966;7.106;2022-09-12T07:19:42;13.60;;;11.73;;
3767;SDS011;1899;49.966;7.106;2022-09-12T07:22:08;14.63;;;12.30;;
3767;SDS011;1899;49.966;7.106;2022-09-12T07:24:33;15.80;;;12.20;;
3767;SDS011;1899;49.966;7.106;2022-09-12T07:26:58;11.80;;;10.60;;
3767;SDS011;1899;49.966;7.106;2022-09-12T07:29:23;14.25;;;11.70;;
3767;SDS011;1899;49.966;7.106;2022-09-12T07:31:49;13.20;;;10.93;;
3767;SDS011;1899;49.966;7.106;2022-09-12T07:34:14;13.73;;;11.60;;
3767;SDS011;1899;49.966;7.106;2022-09-12T07:36:39;12.27;;;10.60;;
3767;SDS011;1899;49.966;7.106;2022-09-12T07:39:04;12.60;;;11.10;;
3767;SDS011;1899;49.966;7.106;2022-09-12T07:41:30;11.98;;;10.73;;
3767;SDS011;1899;49.966;7.106;2022-09-12T07:43:58;12.40;;;10.85;;
3767;SDS011;1899;49.966;7.106;2022-09-12T07:46:24;15.13;;;12.40;;
3767;SDS011;1899;49.966;7.106;2022-09-12T07:48:50;15.10;;;12.38;;
3767;SDS011;1899;49.966;7.106;2022-09-12T07:51:15;15.20;;;12.48;;
3767;SDS011;1899;49.966;7.106;2022-09-12T07:53:41;14.07;;;11.43;;
3767;SDS011;1899;49.966;7.106;2022-09-12T07:56:08;16.58;;;12.50;;
3767;SDS011;1899;49.966;7.106;2022-09-12T07:58:34;13.35;;;11.27;;
3767;SDS011;1899;49.966;7.106;2022-09-12T08:01:04;12.60;;;11.13;;
3767;SDS011;1899;49.966;7.106;2022-09-12T08:03:29;13.40;;;11.90;;
3767;SDS011;1899;49.966;7.106;2022-09-12T08:06:01;14.97;;;12.40;;
3767;SDS011;1899;49.966;7.106;2022-09-12T08:08:27;14.25;;;11.65;;
3767;SDS011;1899;49.966;7.106;2022-09-12T08:10:55;15.38;;;11.25;;
3767;SDS011;1899;49.966;7.106;2022-09-12T08:13:21;12.75;;;11.32;;
3767;SDS011;1899;49.966;7.106;2022-09-12T08:15:46;14.73;;;11.90;;
3767;SDS011;1899;49.966;7.106;2022-09-12T08:18:11;14.83;;;11.93;;
3767;SDS011;1899;49.966;7.106;2022-09-12T08:20:36;13.27;;;11.88;;
3767;SDS011;1899;49.966;7.106;2022-09-12T08:23:02;13.00;;;11.70;;
3767;SDS011;1899;49.966;7.106;2022-09-12T08:25:27;14.40;;;12.23;;
3767;SDS011;1899;49.966;7.106;2022-09-12T08:27:52;13.93;;;12.13;;
3767;SDS011;1899;49.966;7.106;2022-09-12T08:30:18;13.70;;;12.03;;
3767;SDS011;1899;49.966;7.106;2022-09-12T08:32:43;14.47;;;12.90;;
3767;SDS011;1899;49.966;7.106;2022-09-12T08:35:08;13.77;;;12.37;;
3767;SDS011;1899;49.966;7.106;2022-09-12T08:37:34;16.63;;;14.37;;
3767;SDS011;1899;49.966;7.106;2022-09-12T08:39:59;14.00;;;12.33;;
3767;SDS011;1899;49.966;7.106;2022-09-12T08:42:32;14.00;;;12.50;;
3767;SDS011;1899;49.966;7.106;2022-09-12T08:45:10;11.88;;;10.68;;
3767;SDS011;1899;49.966;7.106;2022-09-12T08:47:40;14.20;;;12.70;;
3767;SDS011;1899;49.966;7.106;2022-09-12T08:52:50;13.00;;;11.70;;
3767;SDS011;1899;49.966;7.106;2022-09-12T08:55:36;13.23;;;11.82;;
3767;SDS011;1899;49.966;7.106;2022-09-12T09:10:38;13.70;;;12.30;;
3767;SDS011;1899;49.966;7.106;2022-09-12T09:13:16;14.38;;;12.88;;
3767;SDS011;1899;49.966;7.106;2022-09-12T09:18:35;12.30;;;11.00;;
3767;SDS011;1899;49.966;7.106;2022-09-12T09:21:09;12.90;;;11.57;;
3767;SDS011;1899;49.966;7.106;2022-09-12T09:23:39;12.90;;;11.60;;
3767;SDS011;1899;49.966;7.106;2022-09-12T09:29:02;13.60;;;10.63;;
3767;SDS011;1899;49.966;7.106;2022-09-12T09:31:33;12.07;;;10.82;;
3767;SDS011;1899;49.966;7.106;2022-09-12T09:34:04;10.07;;;9.07;;
3767;SDS011;1899;49.966;7.106;2022-09-12T09:36:39;11.30;;;10.20;;
3767;SDS011;1899;49.966;7.106;2022-09-12T09:39:11;11.45;;;10.25;;
3767;SDS011;1899;49.966;7.106;2022-09-12T09:44:17;10.18;;;9.07;;
3767;SDS011;1899;49.966;7.106;2022-09-12T09:46:42;9.27;;;8.27;;
3767;SDS011;1899;49.966;7.106;2022-09-12T09:49:09;9.43;;;8.52;;
3767;SDS011;1899;49.966;7.106;2022-09-12T09:51:37;10.60;;;9.60;;
3767;SDS011;1899;49.966;7.106;2022-09-12T09:56:46;9.45;;;8.55;;
3767;SDS011;1899;49.966;7.106;2022-09-12T09:59:16;10.83;;;9.20;;
3767;SDS011;1899;49.966;7.106;2022-09-12T10:01:42;9.68;;;8.68;;
3767;SDS011;1899;49.966;7.106;2022-09-12T10:04:08;9.90;;;9.00;;
3767;SDS011;1899;49.966;7.106;2022-09-12T10:06:40;10.00;;;9.00;;
3767;SDS011;1899;49.966;7.106;2022-09-12T10:09:27;9.77;;;8.87;;
3767;SDS011;1899;49.966;7.106;2022-09-12T10:11:52;10.38;;;8.80;;
3767;SDS011;1899;49.966;7.106;2022-09-12T10:14:39;8.47;;;7.67;;
3767;SDS011;1899;49.966;7.106;2022-09-12T10:17:21;8.75;;;7.95;;
3767;SDS011;1899;49.966;7.106;2022-09-12T10:19:46;9.07;;;8.02;;
3767;SDS011;1899;49.966;7.106;2022-09-12T10:22:16;9.80;;;8.90;;
3767;SDS011;1899;49.966;7.106;2022-09-12T10:24:45;9.05;;;8.25;;
3767;SDS011;1899;49.966;7.106;2022-09-12T10:27:18;7.97;;;7.38;;
3767;SDS011;1899;49.966;7.106;2022-09-12T10:29:53;8.30;;;7.60;;
3767;SDS011;1899;49.966;7.106;2022-09-12T10:32:26;7.45;;;6.85;;
3767;SDS011;1899;49.966;7.106;2022-09-12T10:34:55;7.53;;;6.93;;
3767;SDS011;1899;49.966;7.106;2022-09-12T10:37:31;7.40;;;6.70;;
3767;SDS011;1899;49.966;7.106;2022-09-12T10:39:57;8.33;;;7.43;;
3767;SDS011;1899;49.966;7.106;2022-09-12T10:45:17;5.68;;;5.28;;
3767;SDS011;1899;49.966;7.106;2022-09-12T10:47:43;5.72;;;5.22;;
3767;SDS011;1899;49.966;7.106;2022-09-12T10:50:19;5.20;;;4.80;;
3767;SDS011;1899;49.966;7.106;2022-09-12T10:52:44;4.72;;;4.43;;
3767;SDS011;1899;49.966;7.106;2022-09-12T10:55:13;4.60;;;4.20;;
3767;SDS011;1899;49.966;7.106;2022-09-12T11:00:08;4.57;;;4.18;;
3767;SDS011;1899;49.966;7.106;2022-09-12T11:05:14;5.50;;;4.40;;
3767;SDS011;1899;49.966;7.106;2022-09-12T11:07:48;4.10;;;3.70;;
3767;SDS011;1899;49.966;7.106;2022-09-12T11:10:25;3.70;;;3.47;;
3767;SDS011;1899;49.966;7.106;2022-09-12T11:25:51;3.28;;;2.90;;
3767;SDS011;1899;49.966;7.106;2022-09-12T11:30:53;2.80;;;2.60;;
3767;SDS011;1899;49.966;7.106;2022-09-12T11:33:27;2.80;;;2.60;;
3767;SDS011;1899;49.966;7.106;2022-09-12T11:35:54;4.05;;;2.40;;
3767;SDS011;1899;49.966;7.106;2022-09-12T11:38:36;2.60;;;2.20;;
3767;SDS011;1899;49.966;7.106;2022-09-12T11:41:46;2.63;;;2.42;;
3767;SDS011;1899;49.966;7.106;2022-09-12T11:46:22;2.50;;;2.30;;
3767;SDS011;1899;49.966;7.106;2022-09-12T11:51:26;2.70;;;2.10;;
3767;SDS011;1899;49.966;7.106;2022-09-12T11:54:00;2.40;;;2.08;;
3767;SDS011;1899;49.966;7.106;2022-09-12T11:56:26;2.00;;;1.80;;
3767;SDS011;1899;49.966;7.106;2022-09-12T11:58:53;2.60;;;2.40;;
3767;SDS011;1899;49.966;7.106;2022-09-12T12:01:22;2.10;;;1.90;;
3767;SDS011;1899;49.966;7.106;2022-09-12T12:03:50;2.03;;;1.83;;
3767;SDS011;1899;49.966;7.106;2022-09-12T12:06:25;1.98;;;1.88;;
3767;SDS011;1899;49.966;7.106;2022-09-12T12:08:52;2.20;;;2.00;;
3767;SDS011;1899;49.966;7.106;2022-09-12T12:11:25;1.80;;;1.70;;
3767;SDS011;1899;49.966;7.106;2022-09-12T12:13:58;2.75;;;2.50;;
3767;SDS011;1899;49.966;7.106;2022-09-12T12:16:35;2.20;;;2.00;;
3767;SDS011;1899;49.966;7.106;2022-09-12T12:19:17;2.10;;;1.90;;
3767;SDS011;1899;49.966;7.106;2022-09-12T12:21:46;2.17;;;1.98;;
3767;SDS011;1899;49.966;7.106;2022-09-12T12:24:19;4.07;;;2.45;;
3767;SDS011;1899;49.966;7.106;2022-09-12T12:26:53;3.60;;;2.40;;
3767;SDS011;1899;49.966;7.106;2022-09-12T12:34:44;2.67;;;2.13;;
3767;SDS011;1899;49.966;7.106;2022-09-12T12:44:55;2.35;;;2.22;;
3767;SDS011;1899;49.966;7.106;2022-09-12T12:47:28;2.50;;;2.30;;
3767;SDS011;1899;49.966;7.106;2022-09-12T12:52:21;2.20;;;2.10;;
3767;SDS011;1899;49.966;7.106;2022-09-12T12:54:48;2.25;;;2.05;;
3767;SDS011;1899;49.966;7.106;2022-09-12T13:02:40;3.80;;;2.90;;
3767;SDS011;1899;49.966;7.106;2022-09-12T13:05:18;2.60;;;2.40;;
3767;SDS011;1899;49.966;7.106;2022-09-12T13:07:44;2.30;;;2.10;;
3767;SDS011;1899;49.966;7.106;2022-09-12T13:10:22;2.85;;;2.20;;
3767;SDS011;1899;49.966;7.106;2022-09-12T13:12:47;2.30;;;2.10;;
3767;SDS011;1899;49.966;7.106;2022-09-12T13:20:54;2.42;;;2.22;;
3767;SDS011;1899;49.966;7.106;2022-09-12T13:23:25;2.50;;;2.05;;
3767;SDS011;1899;49.966;7.106;2022-09-12T13:25:57;3.03;;;2.10;;
3767;SDS011;1899;49.966;7.106;2022-09-12T13:28:25;2.20;;;2.00;;
3767;SDS011;1899;49.966;7.106;2022-09-12T13:33:41;1.90;;;1.80;;
3767;SDS011;1899;49.966;7.106;2022-09-12T13:41:24;2.10;;;1.92;;
3767;SDS011;1899;49.966;7.106;2022-09-12T13:43:55;2.10;;;1.90;;
3767;SDS011;1899;49.966;7.106;2022-09-12T13:46:24;2.47;;;2.00;;
3767;SDS011;1899;49.966;7.106;2022-09-12T13:48:51;2.30;;;1.63;;
3767;SDS011;1899;49.966;7.106;2022-09-12T13:51:23;2.93;;;1.80;;
3767;SDS011;1899;49.966;7.106;2022-09-12T13:53:49;1.80;;;1.70;;
3767;SDS011;1899;49.966;7.106;2022-09-12T13:56:18;1.60;;;1.50;;
3767;SDS011;1899;49.966;7.106;2022-09-12T13:58:53;2.20;;;1.55;;
3767;SDS011;1899;49.966;7.106;2022-09-12T14:01:20;1.70;;;1.30;;
3767;SDS011;1899;49.966;7.106;2022-09-12T14:03:50;1.77;;;1.67;;
3767;SDS011;1899;49.966;7.106;2022-09-12T14:09:11;1.65;;;1.55;;
3767;SDS011;1899;49.966;7.106;2022-09-12T14:11:37;2.75;;;1.80;;
3767;SDS011;1899;49.966;7.106;2022-09-12T14:14:05;1.80;;;1.60;;
3767;SDS011;1899;49.966;7.106;2022-09-12T14:16:41;1.80;;;1.70;;
3767;SDS011;1899;49.966;7.106;2022-09-12T14:19:07;2.00;;;1.90;;
3767;SDS011;1899;49.966;7.106;2022-09-12T14:21:33;1.90;;;1.70;;
3767;SDS011;1899;49.966;7.106;2022-09-12T14:24:00;2.50;;;1.90;;
3767;SDS011;1899;49.966;7.106;2022-09-12T14:26:26;2.40;;;1.83;;
3767;SDS011;1899;49.966;7.106;2022-09-12T14:28:54;2.13;;;1.80;;
3767;SDS011;1899;49.966;7.106;2022-09-12T14:31:23;1.70;;;1.60;;
3767;SDS011;1899;49.966;7.106;2022-09-12T14:36:18;1.90;;;1.80;;
3767;SDS011;1899;49.966;7.106;2022-09-12T14:38:45;1.75;;;1.65;;
3767;SDS011;1899;49.966;7.106;2022-09-12T14:41:12;1.90;;;1.70;;
3767;SDS011;1899;49.966;7.106;2022-09-12T14:43:43;1.80;;;1.70;;
3767;SDS011;1899;49.966;7.106;2022-09-12T14:46:16;1.90;;;1.80;;
3767;SDS011;1899;49.966;7.106;2022-09-12T14:49:05;1.90;;;1.80;;
3767;SDS011;1899;49.966;7.106;2022-09-12T14:51:33;1.60;;;1.50;;
3767;SDS011;1899;49.966;7.106;2022-09-12T14:54:00;2.00;;;1.73;;
3767;SDS011;1899;49.966;7.106;2022-09-12T14:56:39;1.90;;;1.70;;
3767;SDS011;1899;49.966;7.106;2022-09-12T15:01:48;3.17;;;2.00;;
3767;SDS011;1899;49.966;7.106;2022-09-12T15:04:36;1.80;;;1.70;;
3767;SDS011;1899;49.966;7.106;2022-09-12T15:06:59;2.50;;;1.70;;
3767;SDS011;1899;49.966;7.106;2022-09-12T15:09:24;1.53;;;1.43;;
3767;SDS011;1899;49.966;7.106;2022-09-12T15:11:49;1.80;;;1.70;;
3767;SDS011;1899;49.966;7.106;2022-09-12T15:14:14;2.00;;;1.52;;
3767;SDS011;1899;49.966;7.106;2022-09-12T15:16:40;1.80;;;1.70;;
3767;SDS011;1899;49.966;7.106;2022-09-12T15:19:05;2.00;;;1.70;;
3767;SDS011;1899;49.966;7.106;2022-09-12T15:21:31;1.73;;;1.60;;
3767;SDS011;1899;49.966;7.106;2022-09-12T15:23:56;1.70;;;1.60;;
3767;SDS011;1899;49.966;7.106;2022-09-12T15:26:22;2.37;;;1.60;;
3767;SDS011;1899;49.966;7.106;2022-09-12T15:28:48;1.60;;;1.50;;
3767;SDS011;1899;49.966;7.106;2022-09-12T15:33:44;1.80;;;1.70;;
3767;SDS011;1899;49.966;7.106;2022-09-12T15:36:11;3.00;;;1.90;;
3767;SDS011;1899;49.966;7.106;2022-09-12T15:38:37;2.10;;;1.93;;
3767;SDS011;1899;49.966;7.106;2022-09-12T15:41:02;1.67;;;1.47;;
3767;SDS011;1899;49.966;7.106;2022-09-12T15:43:27;1.60;;;1.50;;
3767;SDS011;1899;49.966;7.106;2022-09-12T15:45:53;2.20;;;1.77;;
3767;SDS011;1899;49.966;7.106;2022-09-12T15:48:18;2.33;;;1.60;;
3767;SDS011;1899;49.966;7.106;2022-09-12T15:50:44;1.75;;;1.60;;
3767;SDS011;1899;49.966;7.106;2022-09-12T15:53:12;1.67;;;1.58;;
3767;SDS011;1899;49.966;7.106;2022-09-12T15:55:38;2.05;;;1.65;;
3767;SDS011;1899;49.966;7.106;2022-09-12T15:58:03;2.88;;;1.70;;
3767;SDS011;1899;49.966;7.106;2022-09-12T16:00:28;2.40;;;1.80;;
3767;SDS011;1899;49.966;7.106;2022-09-12T16:02:53;2.20;;;1.70;;
3767;SDS011;1899;49.966;7.106;2022-09-12T16:05:20;2.00;;;1.90;;
3767;SDS011;1899;49.966;7.106;2022-09-12T16:07:46;3.10;;;2.10;;
3767;SDS011;1899;49.966;7.106;2022-09-12T16:10:16;3.00;;;2.00;;
3767;SDS011;1899;49.966;7.106;2022-09-12T16:12:42;3.20;;;1.80;;
3767;SDS011;1899;49.966;7.106;2022-09-12T16:15:10;2.00;;;1.90;;
3767;SDS011;1899;49.966;7.106;2022-09-12T16:17:36;3.20;;;2.90;;
3767;SDS011;1899;49.966;7.106;2022-09-12T16:20:01;4.67;;;4.27;;
3767;SDS011;1899;49.966;7.106;2022-09-12T16:22:27;5.40;;;2.20;;
3767;SDS011;1899;49.966;7.106;2022-09-12T16:24:52;2.70;;;1.80;;
3767;SDS011;1899;49.966;7.106;2022-09-12T16:27:17;2.50;;;1.80;;
3767;SDS011;1899;49.966;7.106;2022-09-12T16:29:43;1.75;;;1.65;;
3767;SDS011;1899;49.966;7.106;2022-09-12T16:32:08;3.20;;;2.00;;
3767;SDS011;1899;49.966;7.106;2022-09-12T16:34:34;3.58;;;1.90;;
3767;SDS011;1899;49.966;7.106;2022-09-12T16:36:59;3.05;;;2.00;;
3767;SDS011;1899;49.966;7.106;2022-09-12T16:39:25;3.00;;;1.90;;
3767;SDS011;1899;49.966;7.106;2022-09-12T16:41:51;1.70;;;1.60;;
3767;SDS011;1899;49.966;7.106;2022-09-12T16:44:16;3.20;;;1.93;;
3767;SDS011;1899;49.966;7.106;2022-09-12T16:46:41;3.80;;;1.80;;
3767;SDS011;1899;49.966;7.106;2022-09-12T16:49:06;2.53;;;2.00;;
3767;SDS011;1899;49.966;7.106;2022-09-12T16:51:32;2.10;;;1.90;;
3767;SDS011;1899;49.966;7.106;2022-09-12T16:53:59;4.00;;;1.95;;
3767;SDS011;1899;49.966;7.106;2022-09-12T16:56:25;2.60;;;1.83;;
3767;SDS011;1899;49.966;7.106;2022-09-12T16:58:50;2.57;;;1.80;;
3767;SDS011;1899;49.966;7.106;2022-09-12T17:01:17;2.70;;;1.88;;
3767;SDS011;1899;49.966;7.106;2022-09-12T17:03:43;3.85;;;2.67;;
3767;SDS011;1899;49.966;7.106;2022-09-12T17:06:12;3.03;;;2.00;;
3767;SDS011;1899;49.966;7.106;2022-09-12T17:08:38;3.00;;;2.47;;
3767;SDS011;1899;49.966;7.106;2022-09-12T17:11:05;3.45;;;2.40;;
3767;SDS011;1899;49.966;7.106;2022-09-12T17:13:31;2.75;;;2.45;;
3767;SDS011;1899;49.966;7.106;2022-09-12T17:15:56;5.20;;;2.50;;
3767;SDS011;1899;49.966;7.106;2022-09-12T17:18:21;2.43;;;2.03;;
3767;SDS011;1899;49.966;7.106;2022-09-12T17:20:47;2.55;;;2.30;;
3767;SDS011;1899;49.966;7.106;2022-09-12T17:23:12;2.70;;;2.50;;
3767;SDS011;1899;49.966;7.106;2022-09-12T17:25:38;2.90;;;2.50;;
3767;SDS011;1899;49.966;7.106;2022-09-12T17:28:03;3.80;;;2.30;;
3767;SDS011;1899;49.966;7.106;2022-09-12T17:30:34;4.10;;;2.70;;
3767;SDS011;1899;49.966;7.106;2022-09-12T17:33:00;3.72;;;2.45;;
3767;SDS011;1899;49.966;7.106;2022-09-12T17:35:25;3.13;;;2.80;;
3767;SDS011;1899;49.966;7.106;2022-09-12T17:37:51;3.60;;;2.70;;
3767;SDS011;1899;49.966;7.106;2022-09-12T17:40:16;7.22;;;2.80;;
3767;SDS011;1899;49.966;7.106;2022-09-12T17:42:41;5.27;;;3.10;;
3767;SDS011;1899;49.966;7.106;2022-09-12T17:45:08;4.40;;;2.70;;
3767;SDS011;1899;49.966;7.106;2022-09-12T17:47:34;2.50;;;2.30;;
3767;SDS011;1899;49.966;7.106;2022-09-12T17:49:59;3.07;;;2.30;;
3767;SDS011;1899;49.966;7.106;2022-09-12T17:52:24;5.07;;;2.90;;
3767;SDS011;1899;49.966;7.106;2022-09-12T17:54:49;3.77;;;3.37;;
3767;SDS011;1899;49.966;7.106;2022-09-12T17:57:15;6.17;;;3.30;;
3767;SDS011;1899;49.966;7.106;2022-09-12T17:59:40;3.92;;;2.80;;
3767;SDS011;1899;49.966;7.106;2022-09-12T18:02:08;3.30;;;3.00;;
3767;SDS011;1899;49.966;7.106;2022-09-12T18:04:38;3.17;;;2.88;;
3767;SDS011;1899;49.966;7.106;2022-09-12T18:07:06;3.33;;;2.95;;
3767;SDS011;1899;49.966;7.106;2022-09-12T18:09:31;3.05;;;2.83;;
3767;SDS011;1899;49.966;7.106;2022-09-12T18:11:56;3.63;;;2.90;;
3767;SDS011;1899;49.966;7.106;2022-09-12T18:14:22;3.92;;;2.53;;
3767;SDS011;1899;49.966;7.106;2022-09-12T18:16:47;4.40;;;3.20;;
3767;SDS011;1899;49.966;7.106;2022-09-12T18:19:13;3.30;;;3.00;;
3767;SDS011;1899;49.966;7.106;2022-09-12T18:21:38;3.00;;;2.30;;
3767;SDS011;1899;49.966;7.106;2022-09-12T18:24:03;2.70;;;2.40;;
3767;SDS011;1899;49.966;7.106;2022-09-12T18:26:29;2.67;;;2.47;;
3767;SDS011;1899;49.966;7.106;2022-09-12T18:28:55;3.03;;;2.63;;
3767;SDS011;1899;49.966;7.106;2022-09-12T18:31:21;3.20;;;2.30;;
3767;SDS011;1899;49.966;7.106;2022-09-12T18:33:47;2.83;;;2.63;;
3767;SDS011;1899;49.966;7.106;2022-09-12T18:36:13;2.83;;;2.60;;
3767;SDS011;1899;49.966;7.106;2022-09-12T18:38:39;3.40;;;2.70;;
3767;SDS011;1899;49.966;7.106;2022-09-12T18:41:05;3.37;;;2.40;;
3767;SDS011;1899;49.966;7.106;2022-09-12T18:43:31;3.35;;;3.05;;
3767;SDS011;1899;49.966;7.106;2022-09-12T18:45:59;3.30;;;2.87;;
3767;SDS011;1899;49.966;7.106;2022-09-12T18:48:26;6.22;;;2.60;;
3767;SDS011;1899;49.966;7.106;2022-09-12T18:50:51;2.70;;;2.50;;
3767;SDS011;1899;49.966;7.106;2022-09-12T18:53:16;3.20;;;2.70;;
3767;SDS011;1899;49.966;7.106;2022-09-12T18:55:41;2.50;;;2.30;;
3767;SDS011;1899;49.966;7.106;2022-09-12T18:58:07;2.90;;;2.70;;
3767;SDS011;1899;49.966;7.106;2022-09-12T19:00:32;3.60;;;2.70;;
3767;SDS011;1899;49.966;7.106;2022-09-12T19:02:57;2.80;;;2.50;;
3767;SDS011;1899;49.966;7.106;2022-09-12T19:05:22;2.90;;;2.60;;
3767;SDS011;1899;49.966;7.106;2022-09-12T19:07:48;5.00;;;3.03;;
3767;SDS011;1899;49.966;7.106;2022-09-12T19:10:13;3.10;;;2.50;;
3767;SDS011;1899;49.966;7.106;2022-09-12T19:12:38;2.90;;;2.70;;
3767;SDS011;1899;49.966;7.106;2022-09-12T19:15:03;4.13;;;3.00;;
3767;SDS011;1899;49.966;7.106;2022-09-12T19:17:29;5.30;;;3.20;;
3767;SDS011;1899;49.966;7.106;2022-09-12T19:19:54;3.20;;;2.77;;
3767;SDS011;1899;49.966;7.106;2022-09-12T19:22:19;5.60;;;3.30;;
3767;SDS011;1899;49.966;7.106;2022-09-12T19:24:45;3.85;;;3.03;;
3767;SDS011;1899;49.966;7.106;2022-09-12T19:27:10;3.50;;;3.20;;
3767;SDS011;1899;49.966;7.106;2022-09-12T19:29:37;3.30;;;3.10;;
3767;SDS011;1899;49.966;7.106;2022-09-12T19:32:02;6.50;;;3.10;;
3767;SDS011;1899;49.966;7.106;2022-09-12T19:34:27;4.30;;;2.90;;
3767;SDS011;1899;49.966;7.106;2022-09-12T19:36:53;6.00;;;3.30;;
3767;SDS011;1899;49.966;7.106;2022-09-12T19:39:18;3.55;;;3.10;;
3767;SDS011;1899;49.966;7.106;2022-09-12T19:41:44;3.47;;;3.17;;
3767;SDS011;1899;49.966;7.106;2022-09-12T19:44:09;3.45;;;3.15;;
3767;SDS011;1899;49.966;7.106;2022-09-12T19:46:35;4.38;;;2.92;;
3767;SDS011;1899;49.966;7.106;2022-09-12T19:49:00;3.20;;;2.83;;
3767;SDS011;1899;49.966;7.106;2022-09-12T19:51:25;8.73;;;3.47;;
3767;SDS011;1899;49.966;7.106;2022-09-12T19:53:51;3.50;;;3.20;;
3767;SDS011;1899;49.966;7.106;2022-09-12T19:56:16;3.65;;;3.30;;
3767;SDS011;1899;49.966;7.106;2022-09-12T19:58:43;3.60;;;3.30;;
